Terminal Aerodrome Forecast
Issued by NWS Albany, NY

Home | Current Version | Previous Version | Text Only | Print | Product List | Glossary On
Versions: 1 2 3 4 5 6 7 8 9 10 11 12 13 14 15 16 17 18 19 20 21 22 23 24 25 26 27 28 29 30 31 32
000
FTUS41 KALY 241500 AAA
TAFGFL
TAF AMD
KGFL 241501Z 2415/2512 04005KT P6SM VCSH OVC020
      TEMPO 2415/2417 BKN010 OVC015
     FM241800 02007KT P6SM OVC035
     FM250100 02004KT P6SM SCT030 BKN080
     FM250400 VRB03KT P6SM SCT080
     FM250600 00000KT 2SM BR BKN002=

USA.gov is the U.S. government's official web portal to all federal, state and local government web resources and services.